Time;durP1;ratioP1;P1;durP2;ratioP2;P2;SDS_P1;SDS_P2;PMS_P1;PMS_P2;Temp;Humidity;BMP_temperature;BMP_pressure;BME280_temperature;BME280_humidity;BME280_pressure;Samples;Min_cycle;Max_cycle;Signal;HPM_P1;HPM_P2
2022/01/04 00:02:21;;;;;;;3.57;1.00;;;;;;;;;;5072290;28;20025;-88
2022/01/04 00:04:46;;;;;;;5.07;1.17;;;;;;;;;;5072035;28;20112;-88
2022/01/04 00:07:11;;;;;;;7.90;1.20;;;;;;;;;;5071729;28;20440;-88
2022/01/04 00:09:40;;;;;;;9.30;1.17;;;;;;;;;;5073078;28;20020;-87
2022/01/04 00:14:51;;;;;;;4.60;1.13;;;;;;;;;;5073283;28;20040;-88
2022/01/04 00:17:16;;;;;;;6.63;1.10;;;;;;;;;;5071754;28;20021;-88
2022/01/04 00:19:41;;;;;;;6.43;1.30;;;;;;;;;;5071975;28;20379;-87
2022/01/04 00:22:08;;;;;;;2.40;0.83;;;;;;;;;;5071693;28;20056;-88
2022/01/04 00:24:33;;;;;;;4.23;1.10;;;;;;;;;;5071722;28;20024;-88
2022/01/04 00:26:58;;;;;;;2.70;1.03;;;;;;;;;;5071570;28;20029;-88
2022/01/04 00:29:23;;;;;;;3.73;0.97;;;;;;;;;;5072360;28;20043;-88
2022/01/04 00:31:48;;;;;;;6.23;1.10;;;;;;;;;;5071795;28;20610;-88
2022/01/04 00:34:14;;;;;;;5.17;1.07;;;;;;;;;;5073078;28;20017;-88
2022/01/04 00:36:39;;;;;;;5.43;1.10;;;;;;;;;;5071750;28;20146;-88
2022/01/04 00:39:04;;;;;;;4.33;1.23;;;;;;;;;;5073100;28;20444;-88
2022/01/04 00:41:29;;;;;;;4.90;1.10;;;;;;;;;;5071735;28;20038;-88
2022/01/04 00:43:54;;;;;;;2.67;1.23;;;;;;;;;;5071805;28;20029;-88
2022/01/04 00:46:20;;;;;;;3.30;1.20;;;;;;;;;;5071802;28;20426;-88
2022/01/04 00:51:29;;;;;;;2.50;1.00;;;;;;;;;;5075189;28;20082;-88
2022/01/04 00:53:54;;;;;;;3.77;1.17;;;;;;;;;;5075168;28;20020;-88
2022/01/04 00:56:19;;;;;;;6.07;1.30;;;;;;;;;;5075269;28;20442;-88
2022/01/04 00:58:44;;;;;;;4.83;1.30;;;;;;;;;;5074994;28;20040;-88
2022/01/04 01:01:10;;;;;;;7.57;1.17;;;;;;;;;;5075043;28;20036;-88
2022/01/04 01:03:35;;;;;;;4.47;1.10;;;;;;;;;;5074892;28;20048;-88
2022/01/04 01:06:00;;;;;;;2.43;0.83;;;;;;;;;;5078689;28;20471;-88
2022/01/04 01:08:25;;;;;;;5.43;0.97;;;;;;;;;;5074626;28;20126;-88
2022/01/04 01:10:50;;;;;;;4.20;1.03;;;;;;;;;;5074596;28;20357;-88
2022/01/04 01:13:16;;;;;;;4.33;0.90;;;;;;;;;;5074756;28;20464;-88
2022/01/04 01:15:44;;;;;;;3.27;1.00;;;;;;;;;;5074641;28;20013;-88
2022/01/04 01:18:10;;;;;;;2.03;0.80;;;;;;;;;;5075871;28;20017;-88
2022/01/04 01:20:35;;;;;;;2.93;1.00;;;;;;;;;;5074548;28;20085;-88
2022/01/04 01:23:01;;;;;;;4.73;0.90;;;;;;;;;;5075259;28;20537;-88
2022/01/04 01:25:26;;;;;;;3.07;0.90;;;;;;;;;;5074405;28;20102;-88
2022/01/04 01:27:51;;;;;;;3.77;0.83;;;;;;;;;;5074663;28;20059;-88
2022/01/04 01:30:17;;;;;;;9.77;1.20;;;;;;;;;;5074277;28;20036;-88
2022/01/04 01:32:43;;;;;;;6.20;1.23;;;;;;;;;;5074418;28;20025;-89
2022/01/04 01:35:08;;;;;;;3.60;1.07;;;;;;;;;;5075770;28;20020;-88
2022/01/04 01:37:34;;;;;;;4.60;1.23;;;;;;;;;;5074209;28;20013;-88
2022/01/04 01:39:59;;;;;;;7.20;1.10;;;;;;;;;;5074331;28;20027;-88
2022/01/04 01:42:24;;;;;;;2.80;1.07;;;;;;;;;;5074288;28;20103;-88
2022/01/04 01:44:51;;;;;;;6.07;1.17;;;;;;;;;;5073901;28;20468;-89
2022/01/04 01:47:16;;;;;;;4.50;1.17;;;;;;;;;;5074233;28;20017;-88
2022/01/04 01:49:41;;;;;;;3.20;1.10;;;;;;;;;;5074237;28;20341;-89
2022/01/04 01:52:06;;;;;;;3.07;1.23;;;;;;;;;;5071805;28;20542;-88
2022/01/04 01:54:32;;;;;;;2.93;1.00;;;;;;;;;;5072849;28;20142;-89
2022/01/04 01:56:57;;;;;;;7.73;1.43;;;;;;;;;;5072690;28;20016;-88
2022/01/04 01:59:22;;;;;;;2.63;1.20;;;;;;;;;;5072582;28;20074;-88
2022/01/04 02:01:47;;;;;;;2.87;1.37;;;;;;;;;;5072207;28;20016;-88
2022/01/04 02:04:12;;;;;;;7.23;1.47;;;;;;;;;;5073151;28;20399;-88
2022/01/04 02:06:38;;;;;;;3.07;1.00;;;;;;;;;;5072784;28;20021;-89
2022/01/04 02:09:04;;;;;;;6.00;1.00;;;;;;;;;;5072911;28;20044;-88
2022/01/04 02:11:30;;;;;;;3.67;0.90;;;;;;;;;;5073142;28;20016;-88
2022/01/04 02:13:58;;;;;;;2.37;0.80;;;;;;;;;;5072380;28;20023;-89
2022/01/04 02:16:24;;;;;;;4.17;1.13;;;;;;;;;;5072174;28;20389;-88
2022/01/04 02:18:49;;;;;;;2.83;0.83;;;;;;;;;;5072636;28;20024;-88
2022/01/04 02:21:14;;;;;;;5.13;0.90;;;;;;;;;;5072691;28;20449;-89
2022/01/04 02:23:40;;;;;;;3.27;0.70;;;;;;;;;;5074643;28;20012;-88
2022/01/04 02:26:05;;;;;;;4.90;1.10;;;;;;;;;;5073241;28;20029;-88
2022/01/04 02:28:31;;;;;;;4.27;0.97;;;;;;;;;;5072003;28;20032;-89
2022/01/04 02:30:57;;;;;;;8.43;1.10;;;;;;;;;;5053318;28;20017;-89
2022/01/04 02:33:22;;;;;;;3.77;1.00;;;;;;;;;;5053029;28;20024;-89
2022/01/04 02:35:47;;;;;;;2.00;0.80;;;;;;;;;;5060440;28;20050;-89
2022/01/04 02:38:12;;;;;;;3.77;0.93;;;;;;;;;;5072976;28;20062;-89
2022/01/04 02:40:38;;;;;;;3.73;1.10;;;;;;;;;;5073558;28;20086;-88
2022/01/04 02:43:03;;;;;;;3.50;1.27;;;;;;;;;;5073165;28;20028;-89
2022/01/04 02:45:29;;;;;;;2.43;1.20;;;;;;;;;;5073173;28;20051;-87
2022/01/04 02:47:54;;;;;;;5.37;1.53;;;;;;;;;;5072946;28;20507;-89
2022/01/04 02:50:19;;;;;;;6.00;1.40;;;;;;;;;;5073081;28;20353;-90
2022/01/04 02:52:44;;;;;;;4.70;1.47;;;;;;;;;;5072824;28;20178;-89
2022/01/04 02:55:11;;;;;;;6.17;1.60;;;;;;;;;;5072434;28;20532;-88
2022/01/04 02:57:36;;;;;;;7.50;1.80;;;;;;;;;;5073085;28;20016;-89
2022/01/04 03:00:03;;;;;;;7.37;2.03;;;;;;;;;;5073869;28;20052;-89
2022/01/04 03:02:28;;;;;;;3.67;2.00;;;;;;;;;;5073691;28;20081;-89
2022/01/04 03:04:54;;;;;;;5.00;2.10;;;;;;;;;;5072862;28;20407;-89
2022/01/04 03:07:19;;;;;;;5.83;2.60;;;;;;;;;;5072646;28;20020;-89
2022/01/04 03:09:44;;;;;;;7.50;2.60;;;;;;;;;;5072727;28;20024;-89
2022/01/04 03:12:10;;;;;;;7.10;3.33;;;;;;;;;;5072696;28;20025;-89
2022/01/04 03:14:36;;;;;;;6.07;3.10;;;;;;;;;;5072132;28;20026;-88
2022/01/04 03:17:01;;;;;;;5.53;3.03;;;;;;;;;;5078820;28;20027;-89
2022/01/04 03:19:26;;;;;;;9.63;3.67;;;;;;;;;;5094184;28;20020;-89
2022/01/04 03:21:51;;;;;;;8.97;4.00;;;;;;;;;;5093924;28;20031;-88
2022/01/04 03:24:17;;;;;;;9.93;4.33;;;;;;;;;;5092722;28;20452;-89
2022/01/04 03:26:42;;;;;;;6.43;4.00;;;;;;;;;;5092454;28;20036;-89
2022/01/04 03:29:08;;;;;;;16.00;4.87;;;;;;;;;;5092919;28;20110;-89
2022/01/04 03:31:34;;;;;;;9.00;4.40;;;;;;;;;;5093851;28;20090;-88
2022/01/04 03:33:59;;;;;;;7.23;4.30;;;;;;;;;;5093805;28;20460;-89
2022/01/04 03:36:25;;;;;;;13.00;5.03;;;;;;;;;;5092437;28;20020;-89
2022/01/04 03:38:53;;;;;;;9.87;5.03;;;;;;;;;;5072238;28;20029;-88
2022/01/04 03:41:19;;;;;;;10.77;5.17;;;;;;;;;;5072515;28;20060;-89
2022/01/04 03:43:45;;;;;;;17.80;5.03;;;;;;;;;;5072396;28;20029;-88
2022/01/04 03:46:10;;;;;;;9.60;4.87;;;;;;;;;;5072244;28;20036;-89
2022/01/04 03:48:36;;;;;;;11.43;5.30;;;;;;;;;;5072197;28;20460;-89
2022/01/04 03:51:01;;;;;;;8.83;5.00;;;;;;;;;;5072408;28;20431;-89
2022/01/04 03:53:27;;;;;;;12.27;5.33;;;;;;;;;;5072341;28;20357;-89
2022/01/04 03:55:52;;;;;;;9.80;5.60;;;;;;;;;;5072206;28;20376;-89
2022/01/04 03:58:17;;;;;;;10.40;5.73;;;;;;;;;;5072222;28;20465;-89
2022/01/04 04:00:42;;;;;;;10.87;5.70;;;;;;;;;;5061675;28;20470;-89
2022/01/04 04:03:07;;;;;;;9.90;5.73;;;;;;;;;;5065050;28;20523;-88
2022/01/04 04:05:33;;;;;;;9.23;5.70;;;;;;;;;;5072110;28;20399;-89
2022/01/04 04:07:58;;;;;;;12.63;5.37;;;;;;;;;;5072058;28;20059;-89
2022/01/04 04:10:23;;;;;;;9.77;5.23;;;;;;;;;;5072079;28;20078;-89
2022/01/04 04:12:48;;;;;;;12.23;4.80;;;;;;;;;;5072128;28;20024;-89
2022/01/04 04:15:14;;;;;;;10.47;5.10;;;;;;;;;;5072046;28;20078;-89
2022/01/04 04:17:39;;;;;;;13.13;5.23;;;;;;;;;;5072034;28;20023;-89
2022/01/04 04:20:05;;;;;;;10.67;5.00;;;;;;;;;;5072091;28;20024;-89
2022/01/04 04:22:30;;;;;;;12.77;5.23;;;;;;;;;;5071909;28;20025;-89
2022/01/04 04:24:55;;;;;;;9.87;5.23;;;;;;;;;;5073239;28;20028;-89
2022/01/04 04:27:21;;;;;;;10.30;4.53;;;;;;;;;;5075555;28;20024;-89
2022/01/04 04:29:46;;;;;;;8.70;4.43;;;;;;;;;;5075649;28;20023;-89
2022/01/04 04:32:14;;;;;;;11.60;4.67;;;;;;;;;;5075724;28;20017;-89
2022/01/04 04:34:39;;;;;;;10.40;4.40;;;;;;;;;;5075759;28;20023;-88
2022/01/04 04:37:05;;;;;;;8.87;4.33;;;;;;;;;;5075635;28;20375;-89
2022/01/04 04:39:30;;;;;;;12.00;4.97;;;;;;;;;;5075633;28;20035;-89
2022/01/04 04:41:55;;;;;;;12.20;4.10;;;;;;;;;;5075337;28;20472;-89
2022/01/04 04:44:20;;;;;;;11.80;3.90;;;;;;;;;;5075607;28;20435;-89
2022/01/04 04:46:46;;;;;;;9.33;4.10;;;;;;;;;;5076599;28;20060;-89
2022/01/04 04:49:11;;;;;;;9.23;3.77;;;;;;;;;;5073647;28;20357;-89
2022/01/04 04:51:37;;;;;;;10.73;4.33;;;;;;;;;;5074862;28;20013;-89
2022/01/04 04:54:03;;;;;;;9.93;3.73;;;;;;;;;;5074393;28;20028;-89
2022/01/04 04:56:28;;;;;;;8.97;3.87;;;;;;;;;;5075266;28;20095;-89
2022/01/04 04:58:53;;;;;;;10.57;3.90;;;;;;;;;;5074404;28;20024;-89
2022/01/04 05:01:18;;;;;;;10.63;3.30;;;;;;;;;;5073849;28;20024;-89
2022/01/04 05:03:43;;;;;;;5.87;2.80;;;;;;;;;;5074395;28;20032;-89
2022/01/04 05:06:08;;;;;;;6.53;3.10;;;;;;;;;;5075328;28;20460;-89
2022/01/04 05:08:34;;;;;;;8.13;2.97;;;;;;;;;;5074340;28;20082;-89
2022/01/04 05:10:59;;;;;;;11.37;3.10;;;;;;;;;;5073832;28;20021;-90
2022/01/04 05:13:24;;;;;;;6.27;2.20;;;;;;;;;;5081445;28;20539;-89
2022/01/04 05:15:50;;;;;;;8.13;2.63;;;;;;;;;;5095139;28;20028;-89
2022/01/04 05:18:15;;;;;;;8.07;2.60;;;;;;;;;;5095001;28;20016;-89
2022/01/04 05:20:40;;;;;;;8.07;2.33;;;;;;;;;;5095003;28;20020;-89
2022/01/04 05:23:06;;;;;;;5.47;2.40;;;;;;;;;;5075021;28;20115;-88
2022/01/04 05:25:31;;;;;;;7.00;2.50;;;;;;;;;;5074689;28;20059;-89
2022/01/04 05:27:56;;;;;;;8.60;2.37;;;;;;;;;;5074768;28;20124;-89
2022/01/04 05:30:21;;;;;;;5.40;2.23;;;;;;;;;;5074657;28;20472;-89
2022/01/04 05:32:46;;;;;;;8.53;2.40;;;;;;;;;;5074557;28;20480;-89
2022/01/04 05:35:12;;;;;;;5.63;2.30;;;;;;;;;;5074872;28;20036;-89
2022/01/04 05:37:37;;;;;;;8.07;2.13;;;;;;;;;;5073993;28;20088;-89
2022/01/04 05:40:03;;;;;;;5.03;2.30;;;;;;;;;;5074579;28;20528;-89
2022/01/04 05:42:28;;;;;;;4.13;2.07;;;;;;;;;;5074447;28;20031;-89
2022/01/04 05:44:53;;;;;;;4.33;1.70;;;;;;;;;;5074358;28;20035;-89
2022/01/04 05:47:18;;;;;;;6.37;1.97;;;;;;;;;;5075442;28;20384;-89
2022/01/04 05:49:43;;;;;;;5.33;1.87;;;;;;;;;;5074547;28;20083;-89
2022/01/04 05:52:08;;;;;;;8.50;2.20;;;;;;;;;;5074035;28;20075;-89
2022/01/04 05:54:34;;;;;;;6.50;1.80;;;;;;;;;;5057611;28;20388;-89
2022/01/04 05:56:59;;;;;;;3.77;1.63;;;;;;;;;;5054130;28;20112;-89
2022/01/04 05:59:24;;;;;;;9.60;2.00;;;;;;;;;;5055738;28;20033;-89
2022/01/04 06:01:50;;;;;;;4.13;2.03;;;;;;;;;;5067049;28;20115;-89
2022/01/04 06:04:15;;;;;;;6.47;2.00;;;;;;;;;;5075149;28;20024;-89
2022/01/04 06:06:41;;;;;;;5.93;2.47;;;;;;;;;;5073910;28;20077;-89
2022/01/04 06:09:08;;;;;;;9.30;3.50;;;;;;;;;;5073686;28;20017;-89
2022/01/04 06:16:57;;;;;;;12.27;6.03;;;;;;;;;;5075363;28;20686;-88
2022/01/04 06:19:23;;;;;;;9.57;4.33;;;;;;;;;;5073513;28;20028;-89
2022/01/04 06:21:48;;;;;;;8.13;3.70;;;;;;;;;;5073615;28;20024;-89
2022/01/04 06:24:13;;;;;;;4.83;2.07;;;;;;;;;;5073632;28;20111;-89
2022/01/04 06:26:38;;;;;;;7.80;2.27;;;;;;;;;;5073410;28;20043;-89
2022/01/04 06:29:04;;;;;;;5.50;2.40;;;;;;;;;;5073150;28;20046;-89
2022/01/04 06:31:29;;;;;;;6.80;1.90;;;;;;;;;;5073441;28;20032;-89
2022/01/04 06:33:55;;;;;;;5.60;2.23;;;;;;;;;;5073432;28;20136;-89
2022/01/04 06:36:20;;;;;;;4.77;1.93;;;;;;;;;;5073567;28;20112;-89
2022/01/04 06:38:45;;;;;;;7.97;2.40;;;;;;;;;;5073370;28;20020;-89
2022/01/04 06:41:11;;;;;;;5.60;1.80;;;;;;;;;;5073455;28;20066;-89
2022/01/04 06:43:36;;;;;;;5.20;2.10;;;;;;;;;;5073299;28;20031;-89
2022/01/04 06:46:01;;;;;;;4.87;2.10;;;;;;;;;;5074157;28;20021;-89
2022/01/04 06:48:26;;;;;;;7.43;2.57;;;;;;;;;;5072435;28;20020;-89
2022/01/04 06:50:51;;;;;;;6.90;2.53;;;;;;;;;;5073164;28;20016;-89
2022/01/04 06:53:17;;;;;;;6.73;2.70;;;;;;;;;;5073078;28;20044;-89
2022/01/04 06:55:42;;;;;;;7.97;3.20;;;;;;;;;;5072968;28;20392;-89
2022/01/04 06:58:07;;;;;;;9.90;2.90;;;;;;;;;;5073299;28;20027;-89
2022/01/04 07:00:33;;;;;;;8.17;2.47;;;;;;;;;;5072426;28;20044;-88
2022/01/04 07:02:58;;;;;;;7.90;2.33;;;;;;;;;;5072739;28;20501;-89
2022/01/04 07:05:23;;;;;;;4.97;2.33;;;;;;;;;;5072927;28;20035;-89
2022/01/04 07:07:48;;;;;;;7.63;2.53;;;;;;;;;;5057626;28;20530;-89
2022/01/04 07:10:13;;;;;;;4.53;1.97;;;;;;;;;;5053733;28;20017;-89
2022/01/04 07:12:39;;;;;;;4.40;2.40;;;;;;;;;;5054895;28;20013;-89
2022/01/04 07:15:04;;;;;;;4.27;2.33;;;;;;;;;;5072628;28;20020;-89
2022/01/04 07:17:29;;;;;;;6.17;2.53;;;;;;;;;;5073508;28;20073;-88
2022/01/04 07:19:54;;;;;;;9.67;3.03;;;;;;;;;;5072774;28;20017;-88
2022/01/04 07:22:20;;;;;;;7.33;2.73;;;;;;;;;;5072719;28;20499;-88
2022/01/04 07:24:45;;;;;;;7.07;3.20;;;;;;;;;;5070993;28;20025;-88
2022/01/04 07:27:10;;;;;;;10.57;4.63;;;;;;;;;;5074494;28;20036;-89
2022/01/04 07:29:35;;;;;;;10.63;3.80;;;;;;;;;;5072469;28;20020;-89
2022/01/04 07:32:01;;;;;;;10.10;3.50;;;;;;;;;;5072609;28;20610;-89
2022/01/04 07:34:26;;;;;;;8.23;3.80;;;;;;;;;;5072562;28;20017;-92
2022/01/04 07:36:51;;;;;;;9.50;4.20;;;;;;;;;;5074044;28;20023;-89
2022/01/04 07:39:16;;;;;;;9.47;3.97;;;;;;;;;;5072899;28;20046;-89
2022/01/04 07:41:42;;;;;;;12.83;4.80;;;;;;;;;;5072771;28;20464;-89
2022/01/04 07:44:07;;;;;;;8.50;4.20;;;;;;;;;;5072659;28;20017;-89
2022/01/04 07:46:32;;;;;;;7.33;3.63;;;;;;;;;;5072803;28;20028;-89
2022/01/04 07:48:57;;;;;;;11.90;5.93;;;;;;;;;;5072683;28;20441;-89
2022/01/04 07:51:23;;;;;;;10.70;4.87;;;;;;;;;;5072311;28;20024;-89
2022/01/04 07:53:48;;;;;;;12.13;5.17;;;;;;;;;;5072083;28;20032;-88
2022/01/04 07:56:16;;;;;;;10.70;5.23;;;;;;;;;;5072675;28;20074;-89
2022/01/04 07:58:41;;;;;;;16.10;5.57;;;;;;;;;;5072445;28;20029;-89
2022/01/04 08:01:06;;;;;;;8.77;4.40;;;;;;;;;;5075971;28;20448;-89
2022/01/04 08:03:32;;;;;;;10.43;5.70;;;;;;;;;;5077727;28;20078;-89
2022/01/04 08:05:57;;;;;;;11.57;5.50;;;;;;;;;;5064940;28;20082;-89
2022/01/04 08:08:22;;;;;;;11.03;5.40;;;;;;;;;;5078320;28;20020;-88
2022/01/04 08:10:50;;;;;;;12.93;5.50;;;;;;;;;;5090173;28;20464;-89
2022/01/04 08:13:15;;;;;;;12.40;5.00;;;;;;;;;;5075796;28;20492;-89
2022/01/04 08:15:40;;;;;;;10.67;5.40;;;;;;;;;;5076567;28;20028;-89
2022/01/04 08:18:05;;;;;;;12.13;5.77;;;;;;;;;;5069993;28;20104;-88
2022/01/04 08:20:31;;;;;;;16.60;6.57;;;;;;;;;;5079145;28;20020;-88
2022/01/04 08:22:57;;;;;;;12.80;5.30;;;;;;;;;;5080024;28;20029;-89
2022/01/04 08:25:22;;;;;;;10.80;4.93;;;;;;;;;;5083946;28;20020;-88
2022/01/04 08:27:47;;;;;;;12.90;6.20;;;;;;;;;;5072581;28;20396;-88
2022/01/04 08:30:13;;;;;;;13.13;5.13;;;;;;;;;;5077121;28;20057;-88
2022/01/04 08:32:38;;;;;;;11.40;5.33;;;;;;;;;;5072435;28;20052;-89
2022/01/04 08:35:07;;;;;;;11.10;5.80;;;;;;;;;;5070398;28;20050;-88
2022/01/04 08:37:33;;;;;;;11.10;5.30;;;;;;;;;;5092438;28;20472;-89
2022/01/04 08:39:59;;;;;;;13.70;5.83;;;;;;;;;;5077815;28;20119;-88
2022/01/04 08:42:24;;;;;;;11.10;5.20;;;;;;;;;;5075767;28;20031;-89
2022/01/04 08:44:49;;;;;;;12.30;5.50;;;;;;;;;;5055932;28;20029;-89
2022/01/04 08:47:15;;;;;;;13.80;5.53;;;;;;;;;;5115646;27;20027;-90
2022/01/04 08:49:40;;;;;;;12.93;5.63;;;;;;;;;;5093565;28;20107;-89
2022/01/04 08:52:06;;;;;;;9.17;5.07;;;;;;;;;;5077997;28;20040;-89
2022/01/04 08:54:32;;;;;;;13.47;6.00;;;;;;;;;;5066973;28;20024;-90
2022/01/04 08:56:57;;;;;;;10.80;5.07;;;;;;;;;;5090117;28;20023;-89
2022/01/04 08:59:23;;;;;;;12.13;5.07;;;;;;;;;;5084712;28;20037;-89
2022/01/04 09:01:48;;;;;;;12.63;5.23;;;;;;;;;;5080060;28;20015;-88
2022/01/04 09:04:16;;;;;;;12.13;5.63;;;;;;;;;;5070390;28;20126;-90
2022/01/04 09:06:41;;;;;;;12.43;5.40;;;;;;;;;;5069116;28;20100;-89
2022/01/04 09:09:07;;;;;;;15.70;4.87;;;;;;;;;;5071919;28;20104;-89
2022/01/04 09:11:32;;;;;;;13.37;5.03;;;;;;;;;;5067019;28;20029;-86
2022/01/04 09:19:19;;;;;;;14.57;5.50;;;;;;;;;;5073022;28;20078;-89
2022/01/04 09:21:45;;;;;;;14.10;5.43;;;;;;;;;;5068715;28;20029;-89
2022/01/04 09:24:10;;;;;;;11.50;5.13;;;;;;;;;;5068065;28;20020;-89
2022/01/04 09:26:35;;;;;;;12.10;5.80;;;;;;;;;;5085396;28;20036;-88
2022/01/04 09:29:01;;;;;;;10.50;5.13;;;;;;;;;;5082464;28;20025;-90
2022/01/04 09:31:27;;;;;;;13.87;5.37;;;;;;;;;;5063856;28;20021;-90
2022/01/04 09:33:53;;;;;;;16.27;5.97;;;;;;;;;;5075508;28;20043;-91
2022/01/04 09:36:18;;;;;;;13.13;5.80;;;;;;;;;;5067354;28;20127;-89
2022/01/04 09:38:44;;;;;;;14.87;6.73;;;;;;;;;;5061676;28;20051;-88
2022/01/04 09:41:09;;;;;;;13.10;5.83;;;;;;;;;;5078933;28;20031;-88
2022/01/04 09:43:34;;;;;;;13.50;6.50;;;;;;;;;;5074906;28;20028;-88
2022/01/04 09:46:00;;;;;;;12.27;5.83;;;;;;;;;;5064625;28;20032;-88
2022/01/04 09:48:26;;;;;;;13.87;7.53;;;;;;;;;;5104112;28;20027;-89
2022/01/04 09:50:52;;;;;;;17.40;6.97;;;;;;;;;;5075329;28;20021;-89
2022/01/04 09:53:20;;;;;;;15.97;7.20;;;;;;;;;;5059730;28;20485;-90
2022/01/04 09:55:49;;;;;;;11.87;6.07;;;;;;;;;;5058339;28;20048;-89
2022/01/04 09:58:15;;;;;;;13.73;7.27;;;;;;;;;;5080536;28;20104;-88
2022/01/04 10:00:40;;;;;;;14.30;7.07;;;;;;;;;;5086152;28;20048;-88
2022/01/04 10:03:16;;;;;;;19.40;8.37;;;;;;;;;;5092891;28;20030;-90
2022/01/04 10:05:42;;;;;;;15.23;7.50;;;;;;;;;;5076931;28;20082;-91
2022/01/04 10:08:08;;;;;;;17.03;7.77;;;;;;;;;;5074676;28;20472;-90
2022/01/04 10:10:34;;;;;;;17.03;8.50;;;;;;;;;;5090545;28;20019;-88
2022/01/04 10:13:01;;;;;;;17.43;8.27;;;;;;;;;;5086140;28;20054;-88
2022/01/04 10:15:34;;;;;;;21.13;9.03;;;;;;;;;;5091345;28;20019;-89
2022/01/04 10:18:04;;;;;;;18.37;9.23;;;;;;;;;;5066485;28;20054;-89
2022/01/04 10:20:29;;;;;;;20.30;9.57;;;;;;;;;;5090253;28;20077;-89
2022/01/04 10:22:54;;;;;;;26.37;9.93;;;;;;;;;;5073604;28;20111;-89
2022/01/04 10:25:20;;;;;;;19.40;9.80;;;;;;;;;;5073762;28;20032;-89
2022/01/04 10:27:50;;;;;;;15.57;8.37;;;;;;;;;;5076121;28;20016;-89
2022/01/04 10:30:23;;;;;;;17.90;9.53;;;;;;;;;;5067307;28;20505;-90
2022/01/04 10:32:49;;;;;;;20.67;10.47;;;;;;;;;;5075214;28;20033;-89
2022/01/04 10:35:24;;;;;;;17.17;9.80;;;;;;;;;;5076725;28;20025;-89
2022/01/04 10:37:50;;;;;;;21.30;10.60;;;;;;;;;;5070125;28;20383;-89
2022/01/04 10:40:16;;;;;;;20.03;10.30;;;;;;;;;;5087629;28;20091;-89
2022/01/04 10:42:41;;;;;;;21.17;10.23;;;;;;;;;;5067266;28;20021;-88
2022/01/04 10:45:23;;;;;;;17.60;10.10;;;;;;;;;;5074815;28;20027;-89
2022/01/04 10:47:48;;;;;;;19.37;10.30;;;;;;;;;;5075244;28;20024;-89
2022/01/04 10:50:27;;;;;;;22.33;11.00;;;;;;;;;;5057887;28;20242;-89
2022/01/04 10:52:52;;;;;;;21.90;9.87;;;;;;;;;;5058358;28;20070;-90
2022/01/04 10:55:18;;;;;;;22.00;9.30;;;;;;;;;;5079621;28;20020;-89
2022/01/04 10:57:43;;;;;;;18.97;9.27;;;;;;;;;;5059776;28;20423;-89
2022/01/04 11:00:16;;;;;;;18.60;11.07;;;;;;;;;;5094333;28;20043;-89
2022/01/04 11:02:41;;;;;;;20.47;8.27;;;;;;;;;;5074627;28;20032;-91
2022/01/04 11:05:17;;;;;;;13.17;8.37;;;;;;;;;;5074282;28;20021;-88
2022/01/04 11:07:57;;;;;;;17.27;9.47;;;;;;;;;;5073158;28;20078;-89
2022/01/04 11:10:23;;;;;;;20.87;11.03;;;;;;;;;;5075502;28;20027;-89
2022/01/04 11:12:48;;;;;;;18.57;9.63;;;;;;;;;;5073210;28;20013;-90
2022/01/04 11:15:13;;;;;;;18.90;10.43;;;;;;;;;;5087163;28;20023;-89
2022/01/04 11:17:39;;;;;;;16.67;9.57;;;;;;;;;;5076845;28;20016;-89
2022/01/04 11:20:04;;;;;;;22.63;9.70;;;;;;;;;;5076033;28;20111;-88
2022/01/04 11:22:29;;;;;;;22.23;10.40;;;;;;;;;;5065806;28;20480;-89
2022/01/04 11:24:55;;;;;;;20.30;9.83;;;;;;;;;;5075175;28;20114;-88
2022/01/04 11:27:20;;;;;;;20.30;10.17;;;;;;;;;;5078134;28;20375;-88
2022/01/04 11:29:47;;;;;;;20.13;10.23;;;;;;;;;;5071722;28;20028;-89
2022/01/04 11:32:16;;;;;;;20.13;9.90;;;;;;;;;;5072048;28;20018;-89
2022/01/04 11:34:56;;;;;;;19.03;9.13;;;;;;;;;;5090549;27;20381;-89
2022/01/04 11:37:22;;;;;;;24.13;10.70;;;;;;;;;;5062331;28;20024;-89
2022/01/04 11:39:48;;;;;;;22.07;9.23;;;;;;;;;;5070728;28;20020;-89
2022/01/04 11:42:31;;;;;;;18.53;9.90;;;;;;;;;;5075775;28;20038;-89
2022/01/04 11:44:57;;;;;;;20.03;9.17;;;;;;;;;;5083767;28;20410;-89
2022/01/04 11:47:25;;;;;;;19.97;9.27;;;;;;;;;;5083472;28;20024;-88
2022/01/04 11:50:20;;;;;;;19.73;9.33;;;;;;;;;;5075951;28;20112;-89
2022/01/04 11:52:46;;;;;;;18.93;9.80;;;;;;;;;;5069614;28;20056;-89
2022/01/04 11:55:17;;;;;;;27.70;11.07;;;;;;;;;;5063375;28;20020;-88
2022/01/04 11:57:42;;;;;;;16.63;8.82;;;;;;;;;;5083749;28;20052;-89
2022/01/04 12:00:08;;;;;;;20.47;9.37;;;;;;;;;;5086120;28;20036;-89
2022/01/04 12:02:39;;;;;;;18.33;8.67;;;;;;;;;;5080531;28;20051;-89
2022/01/04 12:05:23;;;;;;;16.07;8.43;;;;;;;;;;5080240;28;20074;-89
2022/01/04 12:07:49;;;;;;;15.63;8.73;;;;;;;;;;5076521;28;20090;-89
2022/01/04 12:10:17;;;;;;;15.97;8.60;;;;;;;;;;5057744;28;20457;-88
2022/01/04 12:12:55;;;;;;;19.30;8.73;;;;;;;;;;5071707;28;20016;-88
2022/01/04 12:15:32;;;;;;;12.03;8.20;;;;;;;;;;5091155;28;20418;-88
2022/01/04 12:17:58;;;;;;;19.00;8.23;;;;;;;;;;5086073;28;20030;-88
2022/01/04 12:20:41;;;;;;;25.47;8.20;;;;;;;;;;5081929;28;20084;-89
2022/01/04 12:23:25;;;;;;;21.27;8.30;;;;;;;;;;5059509;28;20025;-89
2022/01/04 12:26:03;;;;;;;21.00;8.40;;;;;;;;;;5080899;28;20086;-89
2022/01/04 12:28:28;;;;;;;16.13;8.63;;;;;;;;;;5069498;28;20476;-89
2022/01/04 12:31:13;;;;;;;15.43;8.30;;;;;;;;;;5071417;28;20121;-89
2022/01/04 12:33:38;;;;;;;18.70;8.00;;;;;;;;;;5092030;28;20022;-89
2022/01/04 12:36:04;;;;;;;12.80;7.13;;;;;;;;;;5090392;28;20028;-89
2022/01/04 12:38:30;;;;;;;17.00;8.00;;;;;;;;;;5093319;28;20020;-90
2022/01/04 12:40:55;;;;;;;16.87;7.83;;;;;;;;;;5079955;28;20035;-88
2022/01/04 12:43:21;;;;;;;12.93;6.60;;;;;;;;;;5071937;28;20029;-89
2022/01/04 12:45:55;;;;;;;16.03;6.53;;;;;;;;;;5072495;28;20024;-89
2022/01/04 12:48:40;;;;;;;15.90;7.93;;;;;;;;;;5056967;28;20079;-89
2022/01/04 12:51:44;;;;;;;14.43;6.63;;;;;;;;;;5055254;28;20438;-89
2022/01/04 12:54:12;;;;;;;17.03;6.83;;;;;;;;;;5034652;28;20504;-89
2022/01/04 12:56:42;;;;;;;15.27;6.47;;;;;;;;;;5051968;28;20491;-88
2022/01/04 12:59:07;;;;;;;21.27;6.93;;;;;;;;;;5057579;28;20039;-89
2022/01/04 13:01:33;;;;;;;17.10;7.67;;;;;;;;;;5075331;28;20025;-89
2022/01/04 13:03:59;;;;;;;12.13;6.80;;;;;;;;;;5075410;28;20031;-89
2022/01/04 13:06:24;;;;;;;11.67;6.60;;;;;;;;;;5075157;28;20063;-89
2022/01/04 13:09:08;;;;;;;17.27;6.40;;;;;;;;;;5074867;28;20036;-89
2022/01/04 13:11:33;;;;;;;17.70;6.37;;;;;;;;;;5075124;28;20051;-89
2022/01/04 13:14:06;;;;;;;15.10;6.23;;;;;;;;;;5076061;28;20024;-89
2022/01/04 13:16:34;;;;;;;14.07;6.33;;;;;;;;;;5067707;28;20020;-89
2022/01/04 13:19:12;;;;;;;16.83;6.27;;;;;;;;;;5055137;28;20036;-89
2022/01/04 13:21:37;;;;;;;15.90;6.50;;;;;;;;;;5055950;28;20021;-89
2022/01/04 13:24:03;;;;;;;14.90;7.27;;;;;;;;;;5054767;28;20017;-89
2022/01/04 13:26:28;;;;;;;11.83;5.40;;;;;;;;;;5056779;28;20024;-89
2022/01/04 13:28:55;;;;;;;15.23;6.10;;;;;;;;;;5063689;28;20016;-89
2022/01/04 13:31:20;;;;;;;13.83;7.30;;;;;;;;;;5072857;28;20012;-89
2022/01/04 13:33:45;;;;;;;11.43;6.23;;;;;;;;;;5072396;28;20026;-89
2022/01/04 13:36:10;;;;;;;12.17;6.30;;;;;;;;;;5054776;28;20469;-89
2022/01/04 13:38:36;;;;;;;11.97;5.67;;;;;;;;;;5055886;28;20027;-89
2022/01/04 13:41:03;;;;;;;9.93;5.37;;;;;;;;;;5055307;28;20029;-89
2022/01/04 13:43:31;;;;;;;10.20;5.47;;;;;;;;;;5074716;28;20024;-89
2022/01/04 13:45:58;;;;;;;12.73;5.70;;;;;;;;;;5061519;28;20116;-89
2022/01/04 13:48:28;;;;;;;13.55;6.40;;;;;;;;;;5054424;28;20173;-89
2022/01/04 13:50:54;;;;;;;16.50;6.67;;;;;;;;;;5054384;28;20373;-89
2022/01/04 13:53:20;;;;;;;10.07;6.10;;;;;;;;;;5054289;28;20029;-89
2022/01/04 13:55:58;;;;;;;12.17;5.83;;;;;;;;;;5054587;28;20021;-89
2022/01/04 13:58:33;;;;;;;13.27;4.83;;;;;;;;;;5054124;28;20025;-89
2022/01/04 14:01:08;;;;;;;12.57;5.40;;;;;;;;;;5054225;28;20021;-89
2022/01/04 14:03:33;;;;;;;12.17;5.40;;;;;;;;;;5054215;28;20120;-89
2022/01/04 14:05:59;;;;;;;13.07;5.67;;;;;;;;;;5054253;28;20091;-89
2022/01/04 14:08:43;;;;;;;10.80;4.40;;;;;;;;;;5054200;28;20543;-89
2022/01/04 14:11:08;;;;;;;8.23;3.90;;;;;;;;;;5065804;28;20384;-89
2022/01/04 14:13:36;;;;;;;2.05;0.75;;;;;;;;;;5073482;28;20027;-89
2022/01/04 14:16:11;;;;;;;3.43;0.80;;;;;;;;;;5074007;28;20104;-88
2022/01/04 14:18:57;;;;;;;6.43;1.00;;;;;;;;;;5073751;28;20028;-87
2022/01/04 14:21:28;;;;;;;7.10;0.50;;;;;;;;;;5073405;28;20024;-88
2022/01/04 14:23:53;;;;;;;3.67;0.60;;;;;;;;;;5072093;28;20036;-89
2022/01/04 14:26:22;;;;;;;2.30;0.70;;;;;;;;;;5058102;28;20365;-89
2022/01/04 14:28:47;;;;;;;1.17;0.57;;;;;;;;;;5062254;28;20044;-88
2022/01/04 14:31:16;;;;;;;1.67;0.80;;;;;;;;;;5071092;28;20059;-88
2022/01/04 14:33:41;;;;;;;2.77;0.73;;;;;;;;;;5087530;28;20475;-88
2022/01/04 14:36:06;;;;;;;4.17;1.00;;;;;;;;;;5057374;28;20082;-87
2022/01/04 14:38:31;;;;;;;2.40;0.90;;;;;;;;;;5055357;28;20016;-88
2022/01/04 14:40:57;;;;;;;6.27;0.87;;;;;;;;;;5082865;28;20372;-88
2022/01/04 14:43:25;;;;;;;2.57;0.77;;;;;;;;;;5073151;28;20033;-87
2022/01/04 14:45:50;;;;;;;4.27;0.53;;;;;;;;;;5057968;28;20227;-90
2022/01/04 14:48:17;;;;;;;1.37;0.50;;;;;;;;;;5079877;28;20119;-89
2022/01/04 14:50:42;;;;;;;0.53;0.37;;;;;;;;;;5072804;28;20464;-89